ADDS METAR Data INFO
IDs: Format: Raw Decoded Include TAF

Data at: 2038 UTC 20 Jul 2018

KSJN 201954Z AUTO 31008KT 10SM CLR 32/09 A3019 RMK AO2 LTG DSNT SE SLP112 T03220089
KSJN 201854Z AUTO 30006KT 10SM CLR 31/12 A3021 RMK AO2 LTG DSNT SE AND S SLP120 T03110117
KSJN 201754Z AUTO VRB04KT 10SM CLR 29/13 A3023 RMK AO2 LTG DSNT S SLP123 T02940128 10294 20178 58005
KSJN 201654Z AUTO 28004KT 10SM CLR 27/13 A3024 RMK AO2 SLP132 T02720133
KSJN 201554Z AUTO 30004KT 10SM CLR 26/13 A3024 RMK AO2 SLP135 T02610128
KSJN 201454Z AUTO 00000KT 10SM CLR 24/12 A3024 RMK AO2 SLP136 T02440117 53002
KSJN 201354Z AUTO 17007KT 10SM CLR 21/13 A3024 RMK AO2 SLP138 T02110133
KSJN 201254Z AUTO 19005KT 10SM CLR 18/14 A3023 RMK AO2 SLP147 T01830144
KSJN 201154Z AUTO 18003KT 10SM CLR 18/15 A3023 RMK AO2 SLP133 T01830150 10239 20183 56002
KSJN 201054Z AUTO 18004KT 10SM CLR 18/15 A3024 RMK AO2 SLP129 T01830150
KSJN 200954Z AUTO 10005KT 10SM CLR 19/14 A3023 RMK AO2 SLP129 T01890144
KSJN 200854Z AUTO 00000KT 10SM CLR 20/14 A3024 RMK AO2 SLP128 T02000144 50001
KSJN 200754Z AUTO 05004KT 10SM CLR 20/14 A3025 RMK AO2 SLP133 T02000139
KSJN 200654Z AUTO 30009KT 10SM CLR 21/13 A3024 RMK AO2 SLP133 T02110133 403390178
KSJN 200554Z AUTO 34005KT 10SM CLR 24/13 A3024 RMK AO2 SLP127 T02390133 10317 20233 53014
KSJN 200454Z AUTO 19006KT 10SM CLR 23/14 A3021 RMK AO2 SLP127 T02330139
KSJN 200354Z AUTO 00000KT 10SM CLR 24/12 A3020 RMK AO2 SLP122 T02390122
KSJN 200254Z AUTO 34008KT 10SM CLR 25/12 A3019 RMK AO2 LTG DSNT SW SLP121 T02500117 51010
KSJN 200154Z AUTO 27004KT 10SM OVC100 27/11 A3018 RMK AO2 WSHFT 0058 LTG DSNT SW-NW TSE02B11E39 SLP119 T02670106
KSJN 200145Z AUTO 21004KT 10SM OVC100 27/10 A3018 RMK AO2 WSHFT 0058 LTG DSNT SW-N TSE02B11E39 T02720100
KSJN 200112Z AUTO 11010G19KT 10SM TS OVC090 27/10 A3018 RMK AO2 WSHFT 0058 LTG DSNT N AND NW TSE02B11 T02720100
KSJN 200108Z AUTO 10012G19KT 10SM VCTS BKN090 OVC100 27/09 A3018 RMK AO2 LTG DSNT NW-NE TSE02 T02720094
KSJN 200054Z AUTO 06005G17KT 10SM TS BKN085 OVC120 24/12 A3017 RMK AO2 PK WND 11029/0002 WSHFT 0029 LTG DSNT NW-NE TSB47 SLP128 T02440117
KSJN 200047Z AUTO 01010G24KT 10SM TS BKN090 OVC120 24/12 A3018 RMK AO2 PK WND 11029/0002 WSHFT 0029 LTG DSNT NW-NE TSB47 T02390117
KSJN 200016Z AUTO 11017G22KT 10SM VCTS BKN090 OVC110 29/09 A3016 RMK AO2 PK WND 11029/0002 WSHFT 2356 LTG DSNT N T02890094
KSJN 192354Z AUTO 14006KT 10SM VCTS SCT110 31/11 A3015 RMK AO2 WSHFT 2317 LTG DSNT N-E TSB08E25 SLP106 T03110106 10339 20289 55006
KSJN 192331Z AUTO 24011G20KT 10SM FEW110 31/11 A3015 RMK AO2 WSHFT 2317 LTG DSNT ALQDS TSB08E25 T03110106
KSJN 192314Z AUTO 18013KT 10SM TS FEW100 32/11 A3014 RMK AO2 LTG DSNT ALQDS TSB08 T03220111
KSJN 192254Z AUTO 00000KT 10SM CLR 33/08 A3014 RMK AO2 LTG DSNT N AND E AND S SLP097 T03330078
KSJN 192154Z AUTO 00000KT 10SM CLR 33/08 A3016 RMK AO2 LTG DSNT SE AND S SLP101 T03330083
KSJN 192054Z AUTO VRB04KT 10SM CLR 33/10 A3017 RMK AO2 LTG DSNT SW SLP108 T03280100 56025
KSJN 191954Z AUTO 29005KT 10SM CLR 32/10 A3020 RMK AO2 SLP116 T03220100
KSJN 191854Z AUTO 00000KT 10SM CLR 30/11 A3023 RMK AO2 SLP129 T03000106
KSJN 191754Z AUTO 00000KT 10SM CLR 29/12 A3026 RMK AO2 SLP138 T02940117 10294 20178 58006
KSJN 191654Z AUTO 00000KT 10SM CLR 27/11 A3027 RMK AO2 SLP147 T02670111
KSJN 191554Z AUTO 22004KT 10SM CLR 25/12 A3028 RMK AO2 SLP157 T02500117
KSJN 191454Z AUTO 19007KT 10SM CLR 23/14 A3028 RMK AO2 SLP161 T02280139 51005
KSJN 191354Z AUTO 19006KT 10SM CLR 21/16 A3028 RMK AO2 SLP165 T02060156
KSJN 191254Z AUTO 18004KT 10SM CLR 18/16 A3027 RMK AO2 SLP152 T01780156
KSJN 191154Z AUTO 22004KT 10SM CLR 18/15 A3026 RMK AO2 SLP143 T01780150 10228 20178 53007
KSJN 191054Z AUTO 29004KT 10SM CLR 18/16 A3025 RMK AO2 SLP137 T01780156
KSJN 190954Z AUTO 00000KT 10SM CLR 18/16 A3023 RMK AO2 SLP129 T01830156
KSJN 190854Z AUTO 29006KT 10SM CLR 19/15 A3024 RMK AO2 SLP132 T01890150 53002